createdAt,value
2023-03-10T00:02:38.366Z,6.55
2023-03-10T00:05:43.443Z,7.13
2023-03-10T00:08:48.974Z,6.82
2023-03-10T00:11:54.089Z,6.22
2023-03-10T00:15:02.187Z,7.47
2023-03-10T00:18:07.959Z,6.55
2023-03-10T00:21:15.653Z,7.63
2023-03-10T00:24:21.013Z,7.30
2023-03-10T00:27:26.094Z,6.20
2023-03-10T00:30:35.537Z,7.00
2023-03-10T00:33:40.991Z,6.25
2023-03-10T00:36:45.970Z,7.15
2023-03-10T00:39:53.944Z,6.70
2023-03-10T00:43:01.872Z,6.57
2023-03-10T00:46:10.337Z,6.85
2023-03-10T00:49:18.531Z,6.63
2023-03-10T00:52:23.842Z,6.97
2023-03-10T00:55:29.370Z,6.53
2023-03-10T00:58:35.482Z,6.22
2023-03-10T01:01:44.501Z,6.07
2023-03-10T01:04:50.264Z,6.30
2023-03-10T01:07:55.865Z,3.95
2023-03-10T01:11:03.029Z,4.32
2023-03-10T01:14:10.540Z,4.63
2023-03-10T01:17:18.454Z,3.10
2023-03-10T01:20:24.077Z,2.85
2023-03-10T01:23:29.874Z,3.70
2023-03-10T01:26:35.136Z,2.55
2023-03-10T01:29:40.190Z,2.63
2023-03-10T01:32:48.184Z,2.83
2023-03-10T01:35:53.199Z,2.97
2023-03-10T01:38:59.167Z,3.17
2023-03-10T01:42:04.494Z,2.83
2023-03-10T01:45:12.605Z,2.70
2023-03-10T01:48:20.816Z,2.58
2023-03-10T01:51:26.874Z,2.55
2023-03-10T01:54:34.054Z,3.00
2023-03-10T01:57:42.191Z,2.80
2023-03-10T02:00:47.435Z,3.08
2023-03-10T02:03:57.497Z,2.75
2023-03-10T02:07:03.031Z,2.80
2023-03-10T02:10:09.047Z,2.60
2023-03-10T02:13:14.192Z,2.97
2023-03-10T02:16:20.958Z,3.17
2023-03-10T02:19:38.565Z,3.45
2023-03-10T02:22:44.181Z,2.70
2023-03-10T02:25:52.896Z,3.63
2023-03-10T02:29:01.894Z,3.13
2023-03-10T02:35:12.803Z,3.05
2023-03-10T02:38:26.871Z,3.45
2023-03-10T02:41:34.766Z,3.15
2023-03-10T02:47:48.367Z,3.00
2023-03-10T02:50:54.156Z,3.13
2023-03-10T02:54:00.797Z,2.95
2023-03-10T02:57:06.168Z,2.83
2023-03-10T03:00:12.283Z,3.20
2023-03-10T03:03:22.065Z,3.53
2023-03-10T03:06:27.709Z,2.75
2023-03-10T03:09:32.894Z,3.33
2023-03-10T03:12:38.044Z,3.25
2023-03-10T03:15:43.533Z,2.90
2023-03-10T03:18:52.097Z,2.47
2023-03-10T03:21:59.397Z,3.10
2023-03-10T03:25:06.538Z,2.47
2023-03-10T03:28:12.404Z,2.53
2023-03-10T03:31:19.935Z,2.10
2023-03-10T03:34:29.162Z,3.25
2023-03-10T03:37:37.897Z,2.85
2023-03-10T03:40:45.211Z,2.90
2023-03-10T03:43:52.733Z,2.60
2023-03-10T03:46:58.216Z,2.80
2023-03-10T03:50:07.889Z,2.45
2023-03-10T03:53:13.208Z,2.97
2023-03-10T03:56:18.996Z,2.45
2023-03-10T03:59:24.362Z,2.22
2023-03-10T04:02:30.686Z,2.75
2023-03-10T04:05:38.807Z,3.10
2023-03-10T04:08:44.370Z,3.90
2023-03-10T04:11:50.407Z,2.70
2023-03-10T04:14:56.564Z,3.03
2023-03-10T04:18:02.249Z,2.55
2023-03-10T04:21:10.444Z,2.85
2023-03-10T04:24:16.082Z,2.53
2023-03-10T04:27:21.799Z,2.63
2023-03-10T04:30:30.006Z,3.60
2023-03-10T04:33:38.888Z,3.00
2023-03-10T04:36:47.601Z,2.95
2023-03-10T04:42:58.440Z,3.53
2023-03-10T04:46:04.241Z,3.20
2023-03-10T04:49:09.928Z,3.47
2023-03-10T04:52:17.858Z,3.40
2023-03-10T04:55:23.819Z,3.08
2023-03-10T04:58:29.079Z,3.67
2023-03-10T05:01:34.929Z,3.08
2023-03-10T05:04:42.925Z,3.60
2023-03-10T05:07:51.425Z,3.53
2023-03-10T05:10:59.316Z,3.78
2023-03-10T05:14:05.160Z,3.80
2023-03-10T05:17:10.880Z,3.80
2023-03-10T05:20:17.288Z,4.07
2023-03-10T05:23:25.530Z,4.85
2023-03-10T05:26:34.572Z,4.20
2023-03-10T05:29:42.233Z,4.53
2023-03-10T05:32:54.521Z,3.55
2023-03-10T05:35:59.967Z,3.63
2023-03-10T05:39:10.062Z,3.42
2023-03-10T05:42:19.962Z,3.85
2023-03-10T05:45:25.498Z,4.07
2023-03-10T05:48:31.352Z,3.65
2023-03-10T05:51:38.191Z,4.10
2023-03-10T05:54:46.998Z,4.30
2023-03-10T06:00:57.802Z,5.13
2023-03-10T06:04:03.193Z,4.68
2023-03-10T06:07:08.322Z,7.05
2023-03-10T06:10:16.573Z,4.72
2023-03-10T06:13:22.652Z,5.00
2023-03-10T06:16:28.044Z,4.65
2023-03-10T06:19:33.345Z,4.78
2023-03-10T06:22:38.816Z,4.90
2023-03-10T06:25:46.746Z,4.82
2023-03-10T06:28:52.026Z,5.05
2023-03-10T06:31:57.300Z,4.55
2023-03-10T06:35:02.760Z,4.78
2023-03-10T06:38:08.489Z,4.68
2023-03-10T06:41:16.732Z,4.88
2023-03-10T06:47:27.238Z,5.15
2023-03-10T06:50:32.476Z,4.95
2023-03-10T06:53:37.793Z,5.53
2023-03-10T06:56:45.507Z,5.30
2023-03-10T06:59:50.840Z,5.20
2023-03-10T07:02:56.116Z,6.18
2023-03-10T07:06:01.640Z,5.93
2023-03-10T07:09:06.962Z,5.43
2023-03-10T07:12:15.089Z,5.18
2023-03-10T07:15:20.198Z,4.93
2023-03-10T07:18:28.023Z,4.97
2023-03-10T07:21:33.288Z,5.05
2023-03-10T07:24:38.455Z,5.65
2023-03-10T07:27:46.560Z,5.40
2023-03-10T07:30:52.757Z,5.60
2023-03-10T07:33:58.025Z,5.45
2023-03-10T07:37:03.327Z,5.00
2023-03-10T07:40:09.868Z,5.68
2023-03-10T07:43:17.858Z,5.22
2023-03-10T07:46:23.795Z,4.53
2023-03-10T07:49:29.384Z,5.25
2023-03-10T07:52:34.347Z,4.93
2023-03-10T07:55:41.518Z,5.57
2023-03-10T07:58:49.295Z,5.03
2023-03-10T08:01:54.660Z,4.97
2023-03-10T08:04:59.622Z,4.53
2023-03-10T08:08:05.697Z,3.78
2023-03-10T08:11:11.404Z,4.63
2023-03-10T08:14:21.006Z,4.65
2023-03-10T08:17:30.986Z,4.60
2023-03-10T08:20:36.929Z,4.38
2023-03-10T08:23:42.129Z,4.82
2023-03-10T08:26:47.341Z,4.47
2023-03-10T08:29:55.174Z,4.55
2023-03-10T08:33:00.604Z,4.97
2023-03-10T08:36:07.331Z,4.30
2023-03-10T08:39:13.816Z,5.30
2023-03-10T08:42:19.493Z,4.30
2023-03-10T08:45:27.582Z,3.58
2023-03-10T08:48:32.930Z,4.05
2023-03-10T08:51:38.618Z,4.55
2023-03-10T08:54:43.772Z,3.38
2023-03-10T08:57:49.035Z,4.40
2023-03-10T09:00:57.246Z,4.30
2023-03-10T09:04:02.731Z,4.13
2023-03-10T09:07:08.430Z,3.75
2023-03-10T09:10:13.982Z,3.47
2023-03-10T09:13:19.476Z,6.35
2023-03-10T09:16:28.905Z,2.90
2023-03-10T09:19:34.447Z,2.70
2023-03-10T09:22:40.155Z,3.10
2023-03-10T09:25:45.485Z,3.38
2023-03-10T09:28:51.482Z,3.60
2023-03-10T09:31:59.383Z,2.78
2023-03-10T09:35:04.818Z,2.70
2023-03-10T09:38:10.493Z,3.30
2023-03-10T09:41:33.364Z,4.13
2023-03-10T09:44:43.257Z,3.25
2023-03-10T09:47:56.942Z,3.30
2023-03-10T09:51:06.330Z,3.72
2023-03-10T09:54:19.640Z,3.50
2023-03-10T09:57:26.231Z,3.67
2023-03-10T10:00:32.659Z,3.92
2023-03-10T10:03:52.637Z,3.40
2023-03-10T10:06:59.826Z,3.25
2023-03-10T10:10:09.730Z,3.17
2023-03-10T10:13:16.353Z,3.53
2023-03-10T10:16:34.299Z,3.75
2023-03-10T10:19:43.281Z,4.00
2023-03-10T10:22:48.974Z,3.78
2023-03-10T10:25:54.929Z,3.30
2023-03-10T10:29:01.000Z,3.28
2023-03-10T10:32:10.816Z,3.47
2023-03-10T10:35:19.599Z,3.45
2023-03-10T10:38:27.984Z,3.80
2023-03-10T10:44:43.272Z,4.90
2023-03-10T10:47:50.429Z,3.15
2023-03-10T10:50:58.715Z,2.97
2023-03-10T10:57:19.211Z,3.33
2023-03-10T11:00:28.379Z,3.05
2023-03-10T11:03:35.673Z,2.75
2023-03-10T11:06:43.354Z,3.05
2023-03-10T11:09:48.968Z,3.25
2023-03-10T11:13:03.046Z,3.58
2023-03-10T11:16:12.189Z,3.05
2023-03-10T11:19:22.008Z,3.10
2023-03-10T11:22:36.135Z,3.10
2023-03-10T11:25:43.827Z,2.83
2023-03-10T11:28:52.682Z,3.28
2023-03-10T11:32:01.694Z,3.65
2023-03-10T11:35:18.772Z,2.88
2023-03-10T11:38:37.738Z,3.47
2023-03-10T11:41:46.802Z,3.25
2023-03-10T11:44:56.500Z,3.33
2023-03-10T11:48:11.104Z,3.30
2023-03-10T11:51:21.322Z,3.30
2023-03-10T11:54:30.867Z,2.95
2023-03-10T11:57:38.861Z,2.90
2023-03-10T12:00:45.999Z,3.70
2023-03-10T12:03:56.652Z,3.08
2023-03-10T12:07:04.131Z,2.90
2023-03-10T12:10:17.768Z,3.50
2023-03-10T12:13:27.455Z,2.42
2023-03-10T12:16:34.022Z,2.92
2023-03-10T12:20:09.678Z,3.10
2023-03-10T12:23:29.824Z,2.63
2023-03-10T12:26:51.331Z,2.55
2023-03-10T12:29:58.854Z,3.33
2023-03-10T12:33:04.042Z,3.03
2023-03-10T12:36:12.751Z,3.05
2023-03-10T12:39:28.544Z,2.70
2023-03-10T12:42:35.200Z,2.92
2023-03-10T12:45:46.568Z,3.50
2023-03-10T12:48:56.705Z,2.83
2023-03-10T12:52:09.990Z,3.35
2023-03-10T12:55:20.107Z,2.50
2023-03-10T12:58:26.619Z,3.03
2023-03-10T13:01:40.568Z,2.78
2023-03-10T13:04:48.953Z,2.65
2023-03-10T13:07:57.224Z,3.20
2023-03-10T13:11:03.817Z,2.72
2023-03-10T13:14:13.721Z,2.63
2023-03-10T13:17:28.144Z,3.08
2023-03-10T13:20:39.266Z,3.22
2023-03-10T13:23:46.592Z,3.17
2023-03-10T13:26:52.256Z,2.92
2023-03-10T13:29:58.434Z,3.00
2023-03-10T13:33:06.139Z,2.78
2023-03-10T13:36:23.376Z,3.33
2023-03-10T13:39:28.588Z,2.80
2023-03-10T13:42:43.329Z,2.97
2023-03-10T13:45:49.556Z,3.40
2023-03-10T13:48:58.834Z,2.95
2023-03-10T13:52:05.533Z,2.80
2023-03-10T13:55:15.662Z,2.80
2023-03-10T13:58:20.988Z,2.63
2023-03-10T14:01:27.439Z,2.70
2023-03-10T14:04:46.377Z,2.75
2023-03-10T14:08:02.160Z,2.75
2023-03-10T14:11:22.358Z,2.72
2023-03-10T14:14:31.736Z,3.10
2023-03-10T14:17:38.610Z,3.25
2023-03-10T14:20:47.484Z,3.45
2023-03-10T14:23:53.743Z,3.90
2023-03-10T14:27:02.748Z,3.20
2023-03-10T14:30:17.873Z,3.65
2023-03-10T14:33:23.090Z,2.60
2023-03-10T14:36:30.769Z,2.78
2023-03-10T14:39:36.224Z,3.03
2023-03-10T14:42:42.235Z,3.45
2023-03-10T14:45:47.487Z,3.20
2023-03-10T14:48:52.899Z,3.40
2023-03-10T14:52:00.872Z,2.83
2023-03-10T14:55:08.588Z,2.97
2023-03-10T14:58:15.096Z,3.23
2023-03-10T15:01:20.999Z,3.30
2023-03-10T15:04:26.262Z,3.30
2023-03-10T15:07:34.086Z,3.28
2023-03-10T15:10:41.365Z,4.05
2023-03-10T15:13:46.890Z,3.30
2023-03-10T15:16:52.034Z,3.55
2023-03-10T15:19:57.401Z,3.65
2023-03-10T15:23:05.266Z,3.17
2023-03-10T15:26:13.046Z,3.88
2023-03-10T15:29:19.838Z,3.80
2023-03-10T15:32:25.409Z,3.83
2023-03-10T15:35:31.455Z,3.88
2023-03-10T15:38:39.579Z,3.67
2023-03-10T15:41:44.734Z,3.55
2023-03-10T15:44:51.057Z,3.90
2023-03-10T15:47:56.657Z,3.60
2023-03-10T15:51:01.710Z,3.20
2023-03-10T15:54:12.916Z,3.42
2023-03-10T15:57:18.272Z,3.58
2023-03-10T16:00:25.086Z,3.53
2023-03-10T16:03:30.205Z,3.75
2023-03-10T16:06:36.043Z,4.05
2023-03-10T16:09:43.709Z,3.35
2023-03-10T16:12:49.310Z,3.88
2023-03-10T16:15:55.335Z,3.30
2023-03-10T16:19:00.659Z,3.38
2023-03-10T16:22:05.798Z,3.63
2023-03-10T16:25:15.878Z,3.55
2023-03-10T16:28:21.301Z,4.15
2023-03-10T16:31:27.696Z,3.53
2023-03-10T16:34:32.952Z,4.13
2023-03-10T16:37:38.498Z,4.65
2023-03-10T16:40:51.010Z,4.50
2023-03-10T16:43:56.360Z,4.03
2023-03-10T16:47:02.043Z,4.40
2023-03-10T16:50:08.058Z,4.80
2023-03-10T16:53:13.324Z,4.93
2023-03-10T16:56:21.605Z,5.93
2023-03-10T16:59:27.806Z,5.18
2023-03-10T17:02:33.443Z,4.70
2023-03-10T17:05:39.462Z,5.13
2023-03-10T17:08:44.716Z,4.07
2023-03-10T17:11:55.463Z,4.93
2023-03-10T17:15:00.886Z,5.00
2023-03-10T17:18:07.767Z,4.32
2023-03-10T17:21:14.200Z,4.40
2023-03-10T17:24:20.229Z,4.70
2023-03-10T17:27:28.201Z,4.80
2023-03-10T17:30:33.381Z,4.97
2023-03-10T17:33:38.943Z,5.28
2023-03-10T17:36:44.883Z,4.63
2023-03-10T17:39:50.144Z,4.75
2023-03-10T17:43:08.381Z,4.55
2023-03-10T17:46:19.417Z,4.15
2023-03-10T17:49:24.990Z,4.90
2023-03-10T17:52:30.332Z,4.88
2023-03-10T17:55:38.023Z,4.32
2023-03-10T17:58:46.509Z,4.93
2023-03-10T18:01:51.604Z,4.25
2023-03-10T18:04:57.352Z,4.47
2023-03-10T18:08:02.433Z,5.40
2023-03-10T18:11:08.117Z,5.30
2023-03-10T18:14:15.772Z,5.05
2023-03-10T18:17:20.970Z,4.43
2023-03-10T18:20:27.080Z,4.65
2023-03-10T18:23:32.500Z,5.20
2023-03-10T18:26:38.257Z,4.15
2023-03-10T18:29:46.140Z,4.90
2023-03-10T18:32:51.655Z,5.03
2023-03-10T18:35:57.834Z,5.25
2023-03-10T18:39:04.158Z,5.10
2023-03-10T18:42:09.590Z,5.05
2023-03-10T18:45:17.254Z,4.57
2023-03-10T18:48:25.816Z,5.35
2023-03-10T18:51:31.571Z,5.25
2023-03-10T18:54:36.589Z,5.03
2023-03-10T18:57:42.030Z,5.38
2023-03-10T19:00:49.820Z,5.65
2023-03-10T19:03:55.335Z,4.45
2023-03-10T19:07:00.343Z,5.30
2023-03-10T19:10:05.538Z,4.55
2023-03-10T19:13:11.158Z,4.85
2023-03-10T19:16:19.425Z,4.63
2023-03-10T19:19:24.858Z,4.53
2023-03-10T19:22:30.556Z,5.00
2023-03-10T19:25:35.748Z,4.82
2023-03-10T19:28:40.893Z,5.03
2023-03-10T19:31:48.978Z,5.43
2023-03-10T19:34:54.291Z,5.70
2023-03-10T19:38:00.707Z,4.03
2023-03-10T19:41:06.888Z,4.13
2023-03-10T19:44:12.201Z,4.00
2023-03-10T19:47:20.501Z,5.43
2023-03-10T19:53:31.560Z,4.45
2023-03-10T19:56:37.125Z,4.45
2023-03-10T19:59:42.754Z,4.28
2023-03-10T20:02:50.603Z,5.40
2023-03-10T20:05:55.968Z,4.45
2023-03-10T20:09:01.005Z,4.70
2023-03-10T20:12:06.544Z,4.07
2023-03-10T20:15:11.789Z,5.03
2023-03-10T20:18:21.590Z,4.88
2023-03-10T20:21:26.926Z,4.43
2023-03-10T20:24:32.214Z,4.47
2023-03-10T20:27:37.658Z,4.43
2023-03-10T20:30:42.965Z,4.60
2023-03-10T20:33:51.159Z,4.97
2023-03-10T20:40:01.992Z,4.82
2023-03-10T20:43:09.069Z,4.57
2023-03-10T20:46:14.456Z,4.50
2023-03-10T20:49:22.393Z,4.57
2023-03-10T20:52:27.459Z,4.60
2023-03-10T20:55:34.062Z,4.75
2023-03-10T20:58:39.558Z,5.57
2023-03-10T21:01:45.008Z,6.80
2023-03-10T21:04:52.900Z,6.80
2023-03-10T21:07:58.503Z,5.63
2023-03-10T21:11:03.793Z,4.82
2023-03-10T21:14:09.192Z,5.60
2023-03-10T21:17:14.494Z,4.38
2023-03-10T21:20:23.360Z,4.38
2023-03-10T21:23:28.427Z,4.63
2023-03-10T21:26:33.825Z,5.10
2023-03-10T21:29:40.166Z,4.20
2023-03-10T21:32:45.528Z,4.05
2023-03-10T21:35:53.234Z,4.05
2023-03-10T21:38:58.656Z,4.72
2023-03-10T21:42:04.309Z,4.75
2023-03-10T21:45:11.030Z,4.95
2023-03-10T21:48:16.436Z,4.43
2023-03-10T21:51:26.267Z,4.18
2023-03-10T21:54:31.548Z,4.13
2023-03-10T21:57:38.684Z,4.40
2023-03-10T22:00:43.940Z,4.75
2023-03-10T22:03:49.523Z,4.18
2023-03-10T22:06:57.446Z,4.60
2023-03-10T22:10:02.510Z,4.60
2023-03-10T22:13:08.832Z,5.57
2023-03-10T22:16:17.211Z,5.45
2023-03-10T22:19:22.700Z,4.85
2023-03-10T22:22:30.662Z,5.13
2023-03-10T22:25:36.212Z,5.50
2023-03-10T22:28:41.590Z,5.03
2023-03-10T22:31:47.024Z,4.85
2023-03-10T22:34:52.286Z,4.75
2023-03-10T22:38:00.559Z,3.97
2023-03-10T22:41:05.646Z,5.47
2023-03-10T22:44:11.078Z,4.68
2023-03-10T22:47:16.413Z,4.05
2023-03-10T22:50:22.976Z,3.85
2023-03-10T22:53:30.802Z,4.35
2023-03-10T22:56:36.335Z,4.32
2023-03-10T22:59:41.390Z,4.38
2023-03-10T23:02:46.820Z,4.13
2023-03-10T23:05:52.093Z,4.38
2023-03-10T23:09:00.205Z,4.82
2023-03-10T23:15:18.897Z,4.68
2023-03-10T23:18:29.610Z,4.28
2023-03-10T23:21:35.012Z,4.55
2023-03-10T23:24:42.652Z,4.63
2023-03-10T23:27:47.936Z,5.10
2023-03-10T23:30:54.482Z,4.50
2023-03-10T23:33:59.868Z,4.65
2023-03-10T23:37:04.925Z,5.10
2023-03-10T23:40:15.057Z,5.25
2023-03-10T23:43:20.924Z,5.30
2023-03-10T23:46:26.256Z,5.80
2023-03-10T23:49:33.437Z,5.43
2023-03-10T23:52:38.669Z,5.80
2023-03-10T23:55:48.148Z,6.30
2023-03-10T23:58:53.338Z,6.22
